createdAt,value
2019-05-02T00:00:22.433Z,30.53
2019-05-02T00:02:52.134Z,30.40
2019-05-02T00:05:22.222Z,32.47
2019-05-02T00:07:53.877Z,29.10
2019-05-02T00:10:24.852Z,33.03
2019-05-02T00:12:54.868Z,32.43
2019-05-02T00:15:25.264Z,30.90
2019-05-02T00:17:56.767Z,30.93
2019-05-02T00:20:27.145Z,31.37
2019-05-02T00:22:56.757Z,33.77
2019-05-02T00:25:26.185Z,31.70
2019-05-02T00:27:55.652Z,31.07
2019-05-02T00:30:25.231Z,31.47
2019-05-02T00:32:58.185Z,30.20
2019-05-02T00:35:25.861Z,33.53
2019-05-02T00:37:57.414Z,32.97
2019-05-02T00:40:27.799Z,32.90
2019-05-02T00:42:58.184Z,32.30
2019-05-02T00:45:28.438Z,32.53
2019-05-02T00:48:00.589Z,32.33
2019-05-02T00:50:31.702Z,32.60
2019-05-02T00:53:01.149Z,31.63
2019-05-02T00:55:33.871Z,33.87
2019-05-02T00:58:01.685Z,32.50
2019-05-02T01:00:32.794Z,31.23
2019-05-02T01:03:03.209Z,32.43
2019-05-02T01:05:33.917Z,32.77
2019-05-02T01:08:03.876Z,32.97
2019-05-02T01:10:33.339Z,32.00
2019-05-02T01:13:02.861Z,33.00
2019-05-02T01:15:32.324Z,31.70
2019-05-02T01:18:06.040Z,32.80
2019-05-02T01:20:32.866Z,31.07
2019-05-02T01:23:02.305Z,34.83
2019-05-02T01:25:32.844Z,32.63
2019-05-02T01:28:12.513Z,31.43
2019-05-02T01:30:43.842Z,33.00
2019-05-02T01:33:32.082Z,34.30
2019-05-02T01:36:07.999Z,33.83
2019-05-02T01:38:38.568Z,33.60
2019-05-02T01:41:08.032Z,33.67
2019-05-02T01:43:37.474Z,33.67
2019-05-02T01:46:07.009Z,34.50
2019-05-02T01:48:40.231Z,33.03
2019-05-02T01:51:10.077Z,33.80
2019-05-02T01:53:39.737Z,34.43
2019-05-02T01:56:09.205Z,33.97
2019-05-02T01:58:38.644Z,34.60
2019-05-02T02:01:08.177Z,34.23
2019-05-02T02:03:40.652Z,32.20
2019-05-02T02:06:10.152Z,34.43
2019-05-02T02:08:40.833Z,32.87
2019-05-02T02:11:10.311Z,32.20
2019-05-02T02:13:39.753Z,31.17
2019-05-02T02:16:09.223Z,31.20
2019-05-02T02:18:40.314Z,31.23
2019-05-02T02:21:25.779Z,30.33
2019-05-02T02:23:58.842Z,31.07
2019-05-02T02:26:28.300Z,30.53
2019-05-02T02:28:57.747Z,31.57
2019-05-02T02:31:27.210Z,30.23
2019-05-02T02:33:56.661Z,30.50
2019-05-02T02:36:31.267Z,30.33
2019-05-02T02:38:57.183Z,31.83
2019-05-02T02:41:26.654Z,30.90
2019-05-02T02:44:03.469Z,31.00
2019-05-02T02:46:37.731Z,32.03
2019-05-02T02:49:06.861Z,30.40
2019-05-02T02:51:36.326Z,31.87
2019-05-02T02:54:06.064Z,30.47
2019-05-02T02:56:40.470Z,30.63
2019-05-02T02:59:06.755Z,28.73
2019-05-02T03:01:36.218Z,29.83
2019-05-02T03:04:09.565Z,31.07
2019-05-02T03:06:38.649Z,27.70
2019-05-02T03:09:08.039Z,28.30
2019-05-02T03:11:39.141Z,29.33
2019-05-02T03:14:10.234Z,29.13
2019-05-02T03:16:47.096Z,27.90
2019-05-02T03:19:14.763Z,27.90
2019-05-02T03:22:01.049Z,27.30
2019-05-02T03:24:26.481Z,26.43
2019-05-02T03:26:58.433Z,27.03
2019-05-02T03:29:39.275Z,24.37
2019-05-02T03:32:25.933Z,26.13
2019-05-02T03:34:44.919Z,26.17
2019-05-02T03:37:03.281Z,26.57
2019-05-02T03:39:31.662Z,25.53
2019-05-02T03:42:02.803Z,25.03
2019-05-02T03:44:32.379Z,26.60
2019-05-02T03:47:04.629Z,27.27
2019-05-02T03:49:33.247Z,27.07
2019-05-02T03:52:05.716Z,27.93
2019-05-02T03:54:33.978Z,27.60
2019-05-02T03:57:03.517Z,26.97
2019-05-02T03:59:39.146Z,27.23
2019-05-02T04:02:04.198Z,27.60
2019-05-02T04:04:34.695Z,26.57
2019-05-02T04:07:04.218Z,27.47
2019-05-02T04:09:42.041Z,26.77
2019-05-02T04:12:11.765Z,26.63
2019-05-02T04:14:39.405Z,27.83
2019-05-02T04:17:10.838Z,27.03
2019-05-02T04:19:41.199Z,27.87
2019-05-02T04:22:12.101Z,27.53
2019-05-02T04:24:47.825Z,29.40
2019-05-02T04:27:13.557Z,28.93
2019-05-02T04:29:42.996Z,30.10
2019-05-02T04:32:14.574Z,30.33
2019-05-02T04:34:48.940Z,31.07
2019-05-02T04:37:14.758Z,29.93
2019-05-02T04:39:44.202Z,32.30
2019-05-02T04:42:21.909Z,33.07
2019-05-02T04:45:08.835Z,35.03
2019-05-02T04:47:18.658Z,32.80
2019-05-02T04:49:51.357Z,34.07
2019-05-02T04:52:21.030Z,35.30
2019-05-02T04:54:49.042Z,34.57
2019-05-02T04:57:19.483Z,34.90
2019-05-02T04:59:50.631Z,33.60
2019-05-02T05:02:29.298Z,33.37
2019-05-02T05:04:51.101Z,34.23
2019-05-02T05:07:20.568Z,34.37
2019-05-02T05:09:58.073Z,34.70
2019-05-02T05:12:21.098Z,34.50
2019-05-02T05:14:50.537Z,36.30
2019-05-02T05:17:20.151Z,35.00
2019-05-02T05:19:49.546Z,35.40
2019-05-02T05:22:19.013Z,34.77
2019-05-02T05:24:50.102Z,35.33
2019-05-02T05:27:22.832Z,33.53
2019-05-02T05:29:53.631Z,35.90
2019-05-02T05:32:23.877Z,36.90
2019-05-02T05:34:53.322Z,34.60
2019-05-02T05:37:22.785Z,34.83
2019-05-02T05:39:52.623Z,33.20
2019-05-02T05:42:23.276Z,32.07
2019-05-02T05:44:53.266Z,33.40
2019-05-02T05:47:22.738Z,32.23
2019-05-02T05:49:56.713Z,33.43
2019-05-02T05:52:23.261Z,34.03
2019-05-02T05:54:52.701Z,31.53
2019-05-02T05:57:22.178Z,32.73
2019-05-02T05:59:51.617Z,32.93
2019-05-02T06:02:21.077Z,31.30
2019-05-02T06:04:55.318Z,33.13
2019-05-02T06:07:21.621Z,29.93
2019-05-02T06:09:51.066Z,29.57
2019-05-02T06:12:20.540Z,31.80
2019-05-02T06:14:49.978Z,32.17
2019-05-02T06:17:23.086Z,32.00
2019-05-02T06:19:53.482Z,30.13
2019-05-02T06:22:24.322Z,30.80
2019-05-02T06:24:52.663Z,33.60
2019-05-02T06:27:26.011Z,31.87
2019-05-02T06:29:56.101Z,30.20
2019-05-02T06:32:24.277Z,31.23
2019-05-02T06:34:53.721Z,31.70
2019-05-02T06:37:23.195Z,31.90
2019-05-02T06:39:52.906Z,30.57
2019-05-02T06:42:22.372Z,30.90
2019-05-02T06:44:54.898Z,30.20
2019-05-02T06:47:22.908Z,30.20
2019-05-02T06:49:56.095Z,30.67
2019-05-02T06:52:27.161Z,31.33
2019-05-02T06:54:57.981Z,30.17
2019-05-02T06:57:25.874Z,27.80
2019-05-02T06:59:56.473Z,30.23
2019-05-02T07:02:28.213Z,30.57
2019-05-02T07:04:58.194Z,28.90
2019-05-02T07:07:31.380Z,28.37
2019-05-02T07:09:58.741Z,28.97
2019-05-02T07:12:28.465Z,29.23
2019-05-02T07:15:01.555Z,28.63
2019-05-02T07:17:36.457Z,28.60
2019-05-02T07:20:07.272Z,30.07
2019-05-02T07:22:38.818Z,29.77
2019-05-02T07:25:09.033Z,29.97
2019-05-02T07:27:39.500Z,29.37
2019-05-02T07:30:11.165Z,29.50
2019-05-02T07:32:40.609Z,29.53
2019-05-02T07:35:10.215Z,31.80
2019-05-02T07:37:43.929Z,31.77
2019-05-02T07:40:12.006Z,28.60
2019-05-02T07:42:43.190Z,28.47
2019-05-02T07:45:13.390Z,29.50
2019-05-02T07:47:42.832Z,30.10
2019-05-02T07:50:13.433Z,29.13
2019-05-02T07:52:42.885Z,28.87
2019-05-02T07:55:12.418Z,28.40
2019-05-02T07:57:41.861Z,30.83
2019-05-02T08:00:13.638Z,27.20
2019-05-02T08:02:43.167Z,28.93
2019-05-02T08:05:15.448Z,28.90
2019-05-02T08:07:44.413Z,29.07
2019-05-02T08:10:21.228Z,29.70
2019-05-02T08:12:47.329Z,31.07
2019-05-02T08:15:16.977Z,29.63
2019-05-02T08:17:53.227Z,29.70
2019-05-02T08:20:19.288Z,30.50
2019-05-02T08:22:50.201Z,30.23
2019-05-02T08:25:20.081Z,31.07
2019-05-02T08:27:51.229Z,32.77
2019-05-02T08:30:22.589Z,31.57
2019-05-02T08:32:52.109Z,30.90
2019-05-02T08:35:21.577Z,30.63
2019-05-02T08:37:51.029Z,30.57
2019-05-02T08:40:20.500Z,30.43
2019-05-02T08:42:50.021Z,30.17
2019-05-02T08:45:19.489Z,28.00
2019-05-02T08:47:49.008Z,29.40
2019-05-02T08:50:18.631Z,29.87
2019-05-02T08:52:48.262Z,25.20
2019-05-02T08:55:17.773Z,27.87
2019-05-02T08:57:47.231Z,27.40
2019-05-02T09:00:17.045Z,27.23
2019-05-02T09:02:46.494Z,26.97
2019-05-02T09:05:16.497Z,25.47
2019-05-02T09:07:45.949Z,25.07
2019-05-02T09:10:15.560Z,25.63
2019-05-02T09:12:45.579Z,24.87
2019-05-02T09:15:15.321Z,25.30
2019-05-02T09:17:51.681Z,25.00
2019-05-02T09:20:20.851Z,25.33
2019-05-02T09:22:54.101Z,26.27
2019-05-02T09:25:21.820Z,26.23
2019-05-02T09:27:52.483Z,23.53
2019-05-02T09:30:25.542Z,25.97
2019-05-02T09:32:57.246Z,25.20
2019-05-02T09:35:24.185Z,25.10
2019-05-02T09:37:53.646Z,24.40
2019-05-02T09:40:23.185Z,24.67
2019-05-02T09:42:57.631Z,24.63
2019-05-02T09:45:27.735Z,25.37
2019-05-02T09:48:04.581Z,24.47
2019-05-02T09:50:31.363Z,24.83
2019-05-02T09:52:58.767Z,23.50
2019-05-02T09:55:28.238Z,27.50
2019-05-02T09:57:57.694Z,25.57
2019-05-02T10:00:32.283Z,24.73
2019-05-02T10:03:02.704Z,26.30
2019-05-02T10:05:32.328Z,24.33
2019-05-02T10:08:03.216Z,25.00
2019-05-02T10:10:37.239Z,25.10
2019-05-02T10:13:06.010Z,27.03
2019-05-02T10:15:35.598Z,26.43
2019-05-02T10:18:10.644Z,27.73
2019-05-02T10:20:36.690Z,29.07
2019-05-02T10:23:06.314Z,28.67
2019-05-02T10:25:41.218Z,29.50
2019-05-02T10:28:09.974Z,30.27
2019-05-02T10:30:38.602Z,29.93
2019-05-02T10:33:08.069Z,29.77
2019-05-02T10:35:40.862Z,28.17
2019-05-02T10:38:17.979Z,29.10
2019-05-02T10:40:42.449Z,30.83
2019-05-02T10:43:12.068Z,28.27
2019-05-02T10:45:47.350Z,28.87
2019-05-02T10:48:25.214Z,29.30
2019-05-02T10:50:47.259Z,28.03
2019-05-02T10:53:16.772Z,29.50
2019-05-02T10:55:46.242Z,29.47
2019-05-02T10:58:15.789Z,29.37
2019-05-02T11:00:45.841Z,29.13
2019-05-02T11:03:22.807Z,31.23
2019-05-02T11:05:57.924Z,32.10
2019-05-02T11:08:27.030Z,30.33
2019-05-02T11:10:56.502Z,31.07
2019-05-02T11:13:32.170Z,30.43
2019-05-02T11:16:21.561Z,27.73
2019-05-02T11:18:52.678Z,29.97
2019-05-02T11:21:22.948Z,31.73
2019-05-02T11:23:52.736Z,30.67
2019-05-02T11:26:25.131Z,31.27
2019-05-02T11:28:53.545Z,31.43
2019-05-02T11:31:23.253Z,33.03
2019-05-02T11:33:52.924Z,32.63
2019-05-02T11:36:22.686Z,30.27
2019-05-02T11:38:57.279Z,31.27
2019-05-02T11:41:23.301Z,30.27
2019-05-02T11:43:55.766Z,31.10
2019-05-02T11:46:23.853Z,31.77
2019-05-02T11:48:58.337Z,27.27
2019-05-02T11:51:24.409Z,29.53
2019-05-02T11:53:53.854Z,30.25
2019-05-02T11:56:23.329Z,29.42
2019-05-02T11:58:52.986Z,27.87
2019-05-02T12:01:35.773Z,28.50
2019-05-02T12:03:53.705Z,27.40
2019-05-02T12:06:23.188Z,27.90
2019-05-02T12:08:52.881Z,26.13
2019-05-02T12:11:23.530Z,26.80
2019-05-02T12:13:56.976Z,24.60
2019-05-02T12:16:24.145Z,24.98
2019-05-02T12:18:57.996Z,24.82
2019-05-02T12:21:24.769Z,24.50
2019-05-02T12:23:54.208Z,25.37
2019-05-02T12:26:23.678Z,24.50
2019-05-02T12:28:53.134Z,24.72
2019-05-02T12:31:32.396Z,24.57
2019-05-02T12:34:03.214Z,23.32
2019-05-02T12:36:33.288Z,23.87
2019-05-02T12:39:03.711Z,23.93
2019-05-02T12:41:33.476Z,21.57
2019-05-02T12:44:02.917Z,22.73
2019-05-02T12:46:32.397Z,22.23
2019-05-02T12:49:02.800Z,22.80
2019-05-02T12:51:32.492Z,23.50
2019-05-02T12:54:02.445Z,23.92
2019-05-02T12:56:32.531Z,23.50
2019-05-02T12:59:02.542Z,23.07
2019-05-02T13:01:32.990Z,22.33
2019-05-02T13:04:05.430Z,22.98
2019-05-02T13:06:37.793Z,23.07
2019-05-02T13:09:09.574Z,25.27
2019-05-02T13:11:52.151Z,24.73
2019-05-02T13:14:22.809Z,24.97
2019-05-02T13:16:53.603Z,24.20
2019-05-02T13:19:36.505Z,25.60
2019-05-02T13:21:59.823Z,24.73
2019-05-02T13:24:35.258Z,24.47
2019-05-02T13:27:07.078Z,24.07
2019-05-02T13:29:36.698Z,24.37
2019-05-02T13:32:24.224Z,24.40
2019-05-02T13:34:57.184Z,25.87
2019-05-02T13:37:27.144Z,24.83
2019-05-02T13:40:02.572Z,24.37
2019-05-02T13:42:33.829Z,24.10
2019-05-02T13:45:05.781Z,22.93
2019-05-02T13:47:35.321Z,23.83
2019-05-02T13:50:06.886Z,24.47
2019-05-02T13:52:36.364Z,23.83
2019-05-02T13:55:11.706Z,22.90
2019-05-02T13:57:42.993Z,23.80
2019-05-02T14:00:13.867Z,24.23
2019-05-02T14:02:43.873Z,23.30
2019-05-02T14:05:16.559Z,23.47
2019-05-02T14:07:57.088Z,22.77
2019-05-02T14:10:32.155Z,25.20
2019-05-02T14:13:03.192Z,25.70
2019-05-02T14:15:36.081Z,25.07
2019-05-02T14:18:05.692Z,25.47
2019-05-02T14:20:37.411Z,31.10
2019-05-02T14:23:06.437Z,33.40
2019-05-02T14:25:35.893Z,37.13
2019-05-02T14:28:05.432Z,39.13
2019-05-02T14:30:39.870Z,39.77
2019-05-02T14:33:07.914Z,38.80
2019-05-02T14:35:37.940Z,42.57
2019-05-02T14:38:13.162Z,42.57
2019-05-02T14:40:46.429Z,38.93
2019-05-02T14:43:17.545Z,41.20
2019-05-02T14:45:52.840Z,44.87
2019-05-02T14:48:22.109Z,44.07
2019-05-02T14:50:52.259Z,44.63
2019-05-02T14:53:25.339Z,44.83
2019-05-02T14:55:57.516Z,42.67
2019-05-02T14:58:25.282Z,41.23
2019-05-02T15:00:55.971Z,36.53
2019-05-02T15:03:28.445Z,34.20
2019-05-02T15:05:59.000Z,36.93
2019-05-02T15:08:27.608Z,37.57
2019-05-02T15:10:57.064Z,37.30
2019-05-02T15:13:26.544Z,41.40
2019-05-02T15:15:56.970Z,39.97
2019-05-02T15:18:27.305Z,40.33
2019-05-02T15:20:56.754Z,41.63
2019-05-02T15:23:26.225Z,39.97
2019-05-02T15:25:56.159Z,41.07
2019-05-02T15:28:29.772Z,42.37
2019-05-02T15:31:04.736Z,42.33
2019-05-02T15:33:32.990Z,40.57
2019-05-02T15:36:07.516Z,42.40
2019-05-02T15:38:37.259Z,42.63
2019-05-02T15:41:09.530Z,42.93
2019-05-02T15:43:39.239Z,44.43
2019-05-02T15:46:08.875Z,44.53
2019-05-02T15:48:38.324Z,45.90
2019-05-02T15:51:09.093Z,46.63
2019-05-02T15:54:02.025Z,47.77
2019-05-02T15:56:22.197Z,46.23
2019-05-02T15:58:52.151Z,48.03
2019-05-02T16:01:41.627Z,46.37
2019-05-02T16:04:12.734Z,45.97
2019-05-02T16:06:42.262Z,44.10
2019-05-02T16:09:11.975Z,43.80
2019-05-02T16:11:43.320Z,39.77
2019-05-02T16:14:12.886Z,41.00
2019-05-02T16:16:45.185Z,43.17
2019-05-02T16:19:16.563Z,39.37
2019-05-02T16:21:46.353Z,42.03
2019-05-02T16:24:23.493Z,38.77
2019-05-02T16:26:56.974Z,40.53
2019-05-02T16:29:28.374Z,40.97
2019-05-02T16:31:59.791Z,40.17
2019-05-02T16:34:32.444Z,40.13
2019-05-02T16:37:16.765Z,42.20
2019-05-02T16:39:49.476Z,42.83
2019-05-02T16:42:15.785Z,45.20
2019-05-02T16:44:45.324Z,47.80
2019-05-02T16:47:14.773Z,48.50
2019-05-02T16:49:47.977Z,47.60
2019-05-02T16:52:16.164Z,48.70
2019-05-02T16:54:45.799Z,48.03
2019-05-02T16:57:17.343Z,48.97
2019-05-02T16:59:46.333Z,49.93
2019-05-02T17:02:15.781Z,51.27
2019-05-02T17:04:45.256Z,50.63
2019-05-02T17:07:16.748Z,49.43
2019-05-02T17:09:56.876Z,50.10
2019-05-02T17:12:26.326Z,49.00
2019-05-02T17:15:14.095Z,49.53
2019-05-02T17:17:44.617Z,47.33
2019-05-02T17:20:16.644Z,46.60
2019-05-02T17:22:50.029Z,45.83
2019-05-02T17:25:16.605Z,49.30
2019-05-02T17:27:46.080Z,47.27
2019-05-02T17:30:16.844Z,48.90
2019-05-02T17:32:46.362Z,45.37
2019-05-02T17:35:16.168Z,45.33
2019-05-02T17:37:48.826Z,45.57
2019-05-02T17:40:21.749Z,45.60
2019-05-02T17:42:48.088Z,43.23
2019-05-02T17:45:17.697Z,44.70
2019-05-02T17:47:48.125Z,43.83
2019-05-02T17:50:23.693Z,46.27
2019-05-02T17:53:01.073Z,42.20
2019-05-02T17:55:32.735Z,41.53
2019-05-02T17:58:04.617Z,43.83
2019-05-02T18:00:33.516Z,45.40
2019-05-02T18:03:02.904Z,42.47
2019-05-02T18:05:35.674Z,43.87
2019-05-02T18:08:06.018Z,42.80
2019-05-02T18:10:35.286Z,44.17
2019-05-02T18:13:05.486Z,42.27
2019-05-02T18:15:36.245Z,42.97
2019-05-02T18:18:06.752Z,37.73
2019-05-02T18:20:41.557Z,42.20
2019-05-02T18:23:08.038Z,40.07
2019-05-02T18:25:37.505Z,40.50
2019-05-02T18:28:07.026Z,38.77
2019-05-02T18:30:36.565Z,38.13
2019-05-02T18:33:07.354Z,36.97
2019-05-02T18:35:41.954Z,38.93
2019-05-02T18:38:09.081Z,39.97
2019-05-02T18:40:38.578Z,35.30
2019-05-02T18:43:08.029Z,35.90
2019-05-02T18:45:37.649Z,36.30
2019-05-02T18:48:07.204Z,35.63
2019-05-02T18:50:44.526Z,36.73
2019-05-02T18:53:11.081Z,35.93
2019-05-02T18:55:42.196Z,35.70
2019-05-02T18:58:12.867Z,37.17
2019-05-02T19:00:42.456Z,35.37
2019-05-02T19:03:16.813Z,35.27
2019-05-02T19:05:43.430Z,34.33
2019-05-02T19:08:12.909Z,34.87
2019-05-02T19:10:55.833Z,36.87
2019-05-02T19:13:13.591Z,32.67
2019-05-02T19:15:45.173Z,33.67
2019-05-02T19:18:18.182Z,33.17
2019-05-02T19:20:57.487Z,34.23
2019-05-02T19:23:25.365Z,33.43
2019-05-02T19:25:54.877Z,32.10
2019-05-02T19:28:44.449Z,32.00
2019-05-02T19:31:13.885Z,29.83
2019-05-02T19:33:44.172Z,31.43
2019-05-02T19:36:16.322Z,30.53
2019-05-02T19:38:44.857Z,28.50
2019-05-02T19:41:14.313Z,29.77
2019-05-02T19:43:49.381Z,29.17
2019-05-02T19:46:16.901Z,29.70
2019-05-02T19:48:45.951Z,30.10
2019-05-02T19:51:18.692Z,28.93
2019-05-02T19:53:46.497Z,28.67
2019-05-02T19:56:15.949Z,28.87
2019-05-02T19:58:46.765Z,27.07
2019-05-02T20:01:17.501Z,28.13
2019-05-02T20:03:47.533Z,26.67
2019-05-02T20:06:17.412Z,27.03
2019-05-02T20:08:46.889Z,26.20
2019-05-02T20:11:16.345Z,26.50
2019-05-02T20:13:45.813Z,27.83
2019-05-02T20:16:22.542Z,27.57
2019-05-02T20:18:52.489Z,26.80
2019-05-02T20:21:27.594Z,27.00
2019-05-02T20:23:54.841Z,26.17
2019-05-02T20:26:24.295Z,27.70
2019-05-02T20:28:53.772Z,27.43
2019-05-02T20:31:23.226Z,25.93
2019-05-02T20:33:52.769Z,28.00
2019-05-02T20:36:22.782Z,28.17
2019-05-02T20:38:52.634Z,28.00
2019-05-02T20:41:23.168Z,30.20
2019-05-02T20:43:52.638Z,18.10
2019-05-02T20:46:22.096Z,13.10
2019-05-02T20:48:52.593Z,12.53
2019-05-02T20:51:22.799Z,10.60
2019-05-02T20:53:52.762Z,10.27
2019-05-02T20:56:23.282Z,8.27
2019-05-02T20:58:52.851Z,7.80
2019-05-02T21:01:22.260Z,8.00
2019-05-02T21:03:52.219Z,7.33
2019-05-02T21:06:37.605Z,8.63
2019-05-02T21:08:58.857Z,8.70
2019-05-02T21:11:28.834Z,7.20
2019-05-02T21:13:58.361Z,8.80
2019-05-02T21:16:27.805Z,7.53
2019-05-02T21:18:57.343Z,7.83
2019-05-02T21:21:28.021Z,8.07
2019-05-02T21:23:57.483Z,7.57
2019-05-02T21:26:27.151Z,7.73
2019-05-02T21:28:56.615Z,7.67
2019-05-02T21:31:27.025Z,8.33
2019-05-02T21:33:56.494Z,7.37
2019-05-02T21:36:25.938Z,7.73
2019-05-02T21:38:55.401Z,8.07
2019-05-02T21:41:24.985Z,8.53
2019-05-02T21:43:54.446Z,7.63
2019-05-02T21:46:23.881Z,8.90
2019-05-02T21:48:53.341Z,8.23
2019-05-02T21:51:26.869Z,8.40
2019-05-02T21:53:58.553Z,8.93
2019-05-02T21:56:29.649Z,8.50
2019-05-02T21:59:06.977Z,8.83
2019-05-02T22:01:43.914Z,8.50
2019-05-02T22:04:13.450Z,8.57
2019-05-02T22:06:42.957Z,7.60
2019-05-02T22:09:12.753Z,8.13
2019-05-02T22:11:43.007Z,7.93
2019-05-02T22:14:13.696Z,9.20
2019-05-02T22:16:43.286Z,6.10
2019-05-02T22:19:12.758Z,6.70
2019-05-02T22:21:43.061Z,6.03
2019-05-02T22:24:14.446Z,6.23
2019-05-02T22:26:44.773Z,5.83
2019-05-02T22:29:14.246Z,6.30
2019-05-02T22:31:43.685Z,5.03
2019-05-02T22:34:13.146Z,5.27
2019-05-02T22:36:43.550Z,5.73
2019-05-02T22:39:31.693Z,5.63
2019-05-02T22:42:04.220Z,4.80
2019-05-02T22:44:32.565Z,5.20
2019-05-02T22:47:02.136Z,4.90
2019-05-02T22:49:31.947Z,4.87
2019-05-02T22:52:01.589Z,5.07
2019-05-02T22:54:33.717Z,4.53
2019-05-02T22:57:02.564Z,5.13
2019-05-02T22:59:32.267Z,5.47
2019-05-02T23:02:02.680Z,5.70
2019-05-02T23:04:32.673Z,4.97
2019-05-02T23:07:02.474Z,5.03
2019-05-02T23:09:32.988Z,5.30
2019-05-02T23:12:02.983Z,6.87
2019-05-02T23:14:32.684Z,6.03
2019-05-02T23:17:03.235Z,6.70
2019-05-02T23:19:32.686Z,6.03
2019-05-02T23:22:02.266Z,6.17
2019-05-02T23:24:48.317Z,6.93
2019-05-02T23:27:34.669Z,6.90
2019-05-02T23:30:07.009Z,6.40
2019-05-02T23:32:36.444Z,7.83
2019-05-02T23:35:07.546Z,7.90
2019-05-02T23:37:37.083Z,7.20
2019-05-02T23:40:06.698Z,8.33
2019-05-02T23:42:36.130Z,8.43
2019-05-02T23:45:06.933Z,8.23
2019-05-02T23:47:36.372Z,8.17
2019-05-02T23:50:06.373Z,7.70
2019-05-02T23:52:36.787Z,7.77
2019-05-02T23:55:08.289Z,8.60
2019-05-02T23:57:37.731Z,8.13
